createdAt,value
2023-04-28T00:02:02.405Z,97777.38
2023-04-28T00:04:30.116Z,97765.72
2023-04-28T00:06:56.908Z,97756.69
2023-04-28T00:09:24.294Z,97745.03
2023-04-28T00:11:51.051Z,97757.25
2023-04-28T00:14:17.947Z,97745.47
2023-04-28T00:16:44.805Z,97742.38
2023-04-28T00:19:11.644Z,97738.91
2023-04-28T00:21:38.320Z,97739.97
2023-04-28T00:24:05.279Z,97737.03
2023-04-28T00:26:31.914Z,97718.19
2023-04-28T00:28:58.559Z,97703.59
2023-04-28T00:31:25.470Z,97703.59
2023-04-28T00:33:52.240Z,97699.19
2023-04-28T00:36:18.913Z,97671.41
2023-04-28T00:38:45.782Z,97679.38
2023-04-28T00:41:13.153Z,97658.53
2023-04-28T00:43:48.073Z,97643.56
2023-04-28T00:46:23.445Z,97613.34
2023-04-28T00:48:50.802Z,97603.25
2023-04-28T00:51:17.877Z,97569.16
2023-04-28T00:53:45.870Z,97525.66
2023-04-28T00:56:13.161Z,97509.28
2023-04-28T00:58:40.249Z,97496.53
2023-04-28T01:01:09.879Z,97468.56
2023-04-28T01:03:41.512Z,97495.19
2023-04-28T01:06:10.398Z,97482.81
2023-04-28T01:08:39.004Z,97463.72
2023-04-28T01:11:14.505Z,97426.13
2023-04-28T01:14:01.766Z,97410.66
2023-04-28T01:16:33.782Z,97377.34
2023-04-28T01:19:01.288Z,97384.53
2023-04-28T01:21:32.759Z,97409.59
2023-04-28T01:24:06.553Z,97399.06
2023-04-28T01:26:33.381Z,97377.78
2023-04-28T01:29:01.758Z,97370.78
2023-04-28T01:31:31.315Z,97371.03
2023-04-28T01:33:58.552Z,97339.44
2023-04-28T01:36:27.469Z,97328.72
2023-04-28T01:38:55.261Z,97359.56
2023-04-28T01:41:22.585Z,97362.16
2023-04-28T01:43:49.298Z,97335.81
2023-04-28T01:46:16.176Z,97323.03
2023-04-28T01:48:43.042Z,97275.97
2023-04-28T01:51:09.658Z,97271.50
2023-04-28T01:53:38.662Z,97238.97
2023-04-28T01:56:05.445Z,97223.56
2023-04-28T01:58:32.155Z,97228.59
2023-04-28T02:00:59.405Z,97245.97
2023-04-28T02:03:26.423Z,97235.16
2023-04-28T02:05:54.637Z,97233.03
2023-04-28T02:08:21.878Z,97227.47
2023-04-28T02:10:48.590Z,97217.28
2023-04-28T02:13:15.327Z,97184.25
2023-04-28T02:15:43.165Z,97156.16
2023-04-28T02:18:12.890Z,97161.81
2023-04-28T02:20:40.356Z,97162.25
2023-04-28T02:23:08.391Z,97134.59
2023-04-28T02:25:35.160Z,97102.56
2023-04-28T02:28:02.089Z,97083.34
2023-04-28T02:30:29.029Z,97067.63
2023-04-28T02:32:56.287Z,97075.75
2023-04-28T02:35:23.547Z,97078.63
2023-04-28T02:37:50.670Z,97099.09
2023-04-28T02:40:18.824Z,97086.72
2023-04-28T02:42:45.608Z,97074.03
2023-04-28T02:45:12.750Z,97074.50
2023-04-28T02:47:39.849Z,97102.91
2023-04-28T02:50:07.340Z,97113.25
2023-04-28T02:52:34.117Z,97163.66
2023-04-28T02:55:01.001Z,97166.41
2023-04-28T02:57:27.632Z,97177.38
2023-04-28T02:59:54.515Z,97183.81
2023-04-28T03:02:23.312Z,97153.09
2023-04-28T03:04:50.234Z,97148.41
2023-04-28T03:07:17.287Z,97135.56
2023-04-28T03:09:44.134Z,97097.28
2023-04-28T03:12:10.848Z,97053.34
2023-04-28T03:14:37.558Z,97042.31
2023-04-28T03:17:04.348Z,97027.63
2023-04-28T03:19:31.011Z,97017.44
2023-04-28T03:21:57.846Z,96980.97
2023-04-28T03:24:24.574Z,96944.25
2023-04-28T03:26:51.408Z,96914.97
2023-04-28T03:29:18.064Z,96893.75
2023-04-28T03:31:44.862Z,96871.03
2023-04-28T03:34:12.496Z,96867.34
2023-04-28T03:36:39.335Z,96870.28
2023-04-28T03:39:14.216Z,96837.47
2023-04-28T03:41:42.084Z,96822.25
2023-04-28T03:44:37.648Z,96780.63
2023-04-28T03:47:06.554Z,96757.78
2023-04-28T03:49:33.354Z,96741.63
2023-04-28T03:52:00.154Z,96695.72
2023-04-28T03:54:26.948Z,96689.34
2023-04-28T03:56:53.785Z,96638.00
2023-04-28T03:59:21.243Z,96623.53
2023-04-28T04:01:49.332Z,96605.56
2023-04-28T04:04:16.666Z,96588.53
2023-04-28T04:06:44.210Z,96578.53
2023-04-28T04:09:11.751Z,96556.19
2023-04-28T04:11:38.620Z,96540.53
2023-04-28T04:14:06.458Z,96526.22
2023-04-28T04:16:33.325Z,96527.44
2023-04-28T04:19:00.119Z,96540.84
2023-04-28T04:21:35.999Z,96540.69
2023-04-28T04:24:02.760Z,96531.09
2023-04-28T04:26:29.827Z,96510.19
2023-04-28T04:28:56.894Z,96508.50
2023-04-28T04:31:23.880Z,96515.97
2023-04-28T04:33:51.932Z,96510.00
2023-04-28T04:36:20.549Z,96524.28
2023-04-28T04:38:47.640Z,96529.19
2023-04-28T04:41:20.797Z,96528.72
2023-04-28T04:43:48.758Z,96517.16
2023-04-28T04:46:15.775Z,96512.41
2023-04-28T04:48:42.472Z,96510.28
2023-04-28T04:51:09.391Z,96496.88
2023-04-28T04:53:36.477Z,96475.28
2023-04-28T04:56:03.598Z,96457.22
2023-04-28T04:58:32.120Z,96441.50
2023-04-28T05:01:22.365Z,96441.84
2023-04-28T05:03:49.200Z,96436.19
2023-04-28T05:06:16.235Z,96408.63
2023-04-28T05:08:45.896Z,96396.72
2023-04-28T05:11:12.713Z,96381.34
2023-04-28T05:13:41.006Z,96365.06
2023-04-28T05:16:07.793Z,96370.22
2023-04-28T05:18:57.738Z,96366.03
2023-04-28T05:21:24.490Z,96356.44
2023-04-28T05:23:51.247Z,96335.72
2023-04-28T05:26:17.995Z,96333.97
2023-04-28T05:28:44.877Z,96327.25
2023-04-28T05:31:11.628Z,96319.03
2023-04-28T05:33:38.353Z,96312.03
2023-04-28T05:36:05.635Z,96298.03
2023-04-28T05:38:34.118Z,96297.00
2023-04-28T05:41:02.048Z,96290.13
2023-04-28T05:43:29.071Z,96284.31
2023-04-28T05:45:56.003Z,96274.03
2023-04-28T05:48:22.831Z,96270.59
2023-04-28T05:50:49.681Z,96271.50
2023-04-28T05:53:16.497Z,96263.81
2023-04-28T05:55:43.344Z,96257.78
2023-04-28T05:58:10.254Z,96248.38
2023-04-28T06:00:37.849Z,96242.63
2023-04-28T06:03:05.669Z,96225.06
2023-04-28T06:05:33.303Z,96217.94
2023-04-28T06:08:00.206Z,96230.69
2023-04-28T06:10:27.124Z,96217.41
2023-04-28T06:12:53.933Z,96194.88
2023-04-28T06:15:20.750Z,96198.31
2023-04-28T06:17:48.258Z,96188.72
2023-04-28T06:20:16.766Z,96189.16
2023-04-28T06:22:43.932Z,96174.19
2023-04-28T06:25:10.765Z,96179.25
2023-04-28T06:27:55.502Z,96168.81
2023-04-28T06:30:23.541Z,96172.56
2023-04-28T06:32:50.894Z,96184.56
2023-04-28T06:35:18.037Z,96168.25
2023-04-28T06:37:44.819Z,96165.44
2023-04-28T06:40:11.870Z,96150.69
2023-04-28T06:42:42.122Z,96159.38
2023-04-28T06:45:17.796Z,96150.88
2023-04-28T06:47:44.999Z,96155.22
2023-04-28T06:50:12.464Z,96152.06
2023-04-28T06:52:40.015Z,96133.81
2023-04-28T06:55:09.473Z,96119.38
2023-04-28T06:57:38.104Z,96109.97
2023-04-28T07:00:05.586Z,96104.47
2023-04-28T07:02:32.381Z,96084.72
2023-04-28T07:04:59.337Z,96076.59
2023-04-28T07:07:26.636Z,96076.06
2023-04-28T07:09:53.673Z,96100.81
2023-04-28T07:12:21.423Z,96099.59
2023-04-28T07:14:48.233Z,96105.31
2023-04-28T07:17:14.998Z,96105.94
2023-04-28T07:19:41.758Z,96117.41
2023-04-28T07:22:08.564Z,96123.53
2023-04-28T07:24:35.676Z,96135.00
2023-04-28T07:27:03.921Z,96148.72
2023-04-28T07:29:34.261Z,96135.25
2023-04-28T07:32:09.168Z,96149.16
2023-04-28T07:34:38.066Z,96154.66
2023-04-28T07:37:05.706Z,96164.06
2023-04-28T07:39:35.160Z,96164.28
2023-04-28T07:42:03.476Z,96165.59
2023-04-28T07:44:31.607Z,96168.94
2023-04-28T07:46:59.979Z,96166.19
2023-04-28T07:49:28.632Z,96173.66
2023-04-28T07:51:55.954Z,96172.38
2023-04-28T07:54:23.013Z,96185.97
2023-04-28T07:56:50.320Z,96185.94
2023-04-28T07:59:16.997Z,96186.91
2023-04-28T08:01:43.690Z,96196.78
2023-04-28T08:04:12.175Z,96192.63
2023-04-28T08:06:40.243Z,96193.38
2023-04-28T08:09:07.036Z,96198.69
2023-04-28T08:11:34.778Z,96207.34
2023-04-28T08:14:03.404Z,96209.63
2023-04-28T08:16:31.261Z,96206.50
2023-04-28T08:18:58.280Z,96205.09
2023-04-28T08:21:25.165Z,96228.28
2023-04-28T08:23:51.871Z,96242.50
2023-04-28T08:26:18.755Z,96232.47
2023-04-28T08:28:45.633Z,96245.50
2023-04-28T08:31:12.340Z,96260.34
2023-04-28T08:33:39.228Z,96269.44
2023-04-28T08:36:06.653Z,96278.16
2023-04-28T08:38:33.529Z,96294.09
2023-04-28T08:41:00.186Z,96299.28
2023-04-28T08:43:28.805Z,96330.28
2023-04-28T08:45:55.700Z,96309.75
2023-04-28T08:48:23.170Z,96355.69
2023-04-28T08:50:54.853Z,96361.41
2023-04-28T08:53:26.057Z,96343.19
2023-04-28T08:55:56.851Z,96342.84
2023-04-28T08:58:24.971Z,96322.31
2023-04-28T09:00:52.794Z,96307.97
2023-04-28T09:03:19.959Z,96335.25
2023-04-28T09:05:47.310Z,96358.59
2023-04-28T09:08:14.375Z,96383.94
2023-04-28T09:10:41.504Z,96374.56
2023-04-28T09:13:08.212Z,96349.34
2023-04-28T09:15:41.452Z,96337.25
2023-04-28T09:18:08.822Z,96377.84
2023-04-28T09:20:36.457Z,96353.41
2023-04-28T09:23:16.146Z,96362.84
2023-04-28T09:25:59.708Z,96372.88
2023-04-28T09:28:26.570Z,96370.53
2023-04-28T09:30:54.173Z,96408.34
2023-04-28T09:33:22.089Z,96378.00
2023-04-28T09:35:49.142Z,96367.44
2023-04-28T09:38:16.612Z,96369.41
2023-04-28T09:40:57.325Z,96338.25
2023-04-28T09:43:28.501Z,96411.69
2023-04-28T09:45:56.682Z,96448.91
2023-04-28T09:48:33.603Z,96472.72
2023-04-28T09:51:01.798Z,96460.19
2023-04-28T09:53:29.567Z,96443.28
2023-04-28T09:55:59.430Z,96532.16
2023-04-28T09:58:27.855Z,96541.56
2023-04-28T10:00:55.402Z,96592.03
2023-04-28T10:03:26.079Z,96599.88
2023-04-28T10:05:54.956Z,96545.31
2023-04-28T10:08:22.832Z,96520.00
2023-04-28T10:10:50.309Z,96460.94
2023-04-28T10:13:18.176Z,96485.34
2023-04-28T10:15:46.155Z,96541.03
2023-04-28T10:18:15.229Z,96595.09
2023-04-28T10:20:48.537Z,96681.91
2023-04-28T10:23:59.920Z,96626.75
2023-04-28T10:26:52.478Z,96730.25
2023-04-28T10:29:24.990Z,96780.91
2023-04-28T10:32:17.509Z,96739.06
2023-04-28T10:34:44.748Z,96752.59
2023-04-28T10:37:11.550Z,96795.28
2023-04-28T10:39:38.670Z,96840.22
2023-04-28T10:42:05.447Z,96894.56
2023-04-28T10:44:32.136Z,96854.78
2023-04-28T10:47:03.259Z,96806.19
2023-04-28T10:49:54.851Z,96789.59
2023-04-28T10:52:33.585Z,96781.63
2023-04-28T10:55:28.933Z,96765.41
2023-04-28T10:58:20.523Z,96837.16
2023-04-28T11:00:48.324Z,96862.25
2023-04-28T11:03:37.017Z,96846.47
2023-04-28T11:06:29.082Z,96843.31
2023-04-28T11:09:22.582Z,96808.84
2023-04-28T11:11:58.128Z,96767.28
2023-04-28T11:14:36.203Z,96969.41
2023-04-28T11:17:05.557Z,96880.75
2023-04-28T11:19:37.896Z,96915.97
2023-04-28T11:22:11.884Z,96927.56
2023-04-28T11:24:38.602Z,96858.69
2023-04-28T11:27:05.409Z,96871.63
2023-04-28T11:29:40.232Z,96855.38
2023-04-28T11:32:08.785Z,96906.97
2023-04-28T11:34:37.113Z,96862.53
2023-04-28T11:37:04.088Z,96982.28
2023-04-28T11:39:32.713Z,96939.69
2023-04-28T11:42:02.538Z,96981.53
2023-04-28T11:44:31.528Z,96984.53
2023-04-28T11:47:01.567Z,97078.78
2023-04-28T11:49:30.737Z,97148.16
2023-04-28T11:52:00.579Z,97035.81
2023-04-28T11:54:28.913Z,97013.94
2023-04-28T11:56:57.734Z,97025.47
2023-04-28T11:59:26.176Z,97085.84
2023-04-28T12:01:55.822Z,97097.06
2023-04-28T12:04:32.904Z,97220.09
2023-04-28T12:07:02.232Z,97136.31
2023-04-28T12:09:29.379Z,97149.25
2023-04-28T12:11:58.584Z,97162.06
2023-04-28T12:14:26.073Z,97041.59
2023-04-28T12:16:53.332Z,97055.75
2023-04-28T12:19:21.041Z,97135.72
2023-04-28T12:22:01.932Z,97102.13
2023-04-28T12:24:29.082Z,97168.13
2023-04-28T12:27:14.864Z,97091.59
2023-04-28T12:29:42.903Z,97073.84
2023-04-28T12:32:11.269Z,96987.59
2023-04-28T12:34:39.962Z,97004.53
2023-04-28T12:37:06.982Z,96946.13
2023-04-28T12:39:36.398Z,96900.16
2023-04-28T12:42:04.852Z,96916.31
2023-04-28T12:44:36.823Z,96887.34
2023-04-28T12:47:08.192Z,96896.22
2023-04-28T12:49:38.922Z,96857.22
2023-04-28T12:52:05.967Z,96866.16
2023-04-28T12:54:32.766Z,96832.66
2023-04-28T12:56:59.517Z,96834.59
2023-04-28T12:59:26.903Z,96825.59
2023-04-28T13:01:53.724Z,96842.09
2023-04-28T13:04:20.807Z,96838.81
2023-04-28T13:06:48.182Z,96826.38
2023-04-28T13:09:16.058Z,96823.28
2023-04-28T13:11:43.156Z,96804.91
2023-04-28T13:14:10.055Z,96813.44
2023-04-28T13:16:37.166Z,96714.28
2023-04-28T13:19:04.548Z,96708.63
2023-04-28T13:21:32.156Z,96548.50
2023-04-28T13:23:58.866Z,96433.59
2023-04-28T13:26:27.004Z,96393.06
2023-04-28T13:28:53.740Z,96362.31
2023-04-28T13:31:20.620Z,96382.19
2023-04-28T13:33:47.600Z,96358.19
2023-04-28T13:36:14.456Z,96308.66
2023-04-28T13:38:41.232Z,96278.56
2023-04-28T13:41:08.028Z,96289.34
2023-04-28T13:43:34.883Z,96298.56
2023-04-28T13:46:01.972Z,96330.44
2023-04-28T13:48:33.730Z,96311.22
2023-04-28T13:51:00.511Z,96347.47
2023-04-28T13:53:27.138Z,96348.63
2023-04-28T13:55:54.104Z,96303.38
2023-04-28T13:58:21.280Z,96213.63
2023-04-28T14:00:48.064Z,96156.34
2023-04-28T14:03:15.795Z,96195.72
2023-04-28T14:05:49.546Z,96305.19
2023-04-28T14:08:19.348Z,96406.84
2023-04-28T14:10:48.364Z,96398.69
2023-04-28T14:13:15.688Z,96367.53
2023-04-28T14:15:51.238Z,96349.19
2023-04-28T14:18:25.269Z,96312.00
2023-04-28T14:20:52.116Z,96318.41
2023-04-28T14:23:18.786Z,96293.28
2023-04-28T14:25:45.515Z,96258.41
2023-04-28T14:28:12.417Z,96233.66
2023-04-28T14:30:39.071Z,96235.13
2023-04-28T14:33:06.961Z,96238.84
2023-04-28T14:35:34.798Z,96268.50
2023-04-28T14:38:01.797Z,96264.75
2023-04-28T14:40:28.450Z,96252.31
2023-04-28T14:42:55.159Z,96226.81
2023-04-28T14:45:22.196Z,96218.59
2023-04-28T14:47:49.829Z,96200.56
2023-04-28T14:50:17.051Z,96187.13
2023-04-28T14:52:44.269Z,96179.97
2023-04-28T14:55:11.060Z,96206.91
2023-04-28T14:57:37.994Z,96191.22
2023-04-28T15:00:07.259Z,96185.22
2023-04-28T15:02:34.468Z,96155.28
2023-04-28T15:05:01.626Z,96187.44
2023-04-28T15:07:31.557Z,96204.00
2023-04-28T15:10:01.836Z,96158.28
2023-04-28T15:12:32.281Z,96075.09
2023-04-28T15:14:59.114Z,96026.41
2023-04-28T15:17:26.124Z,95982.22
2023-04-28T15:19:52.826Z,95919.97
2023-04-28T15:22:19.566Z,95917.28
2023-04-28T15:24:46.552Z,95938.16
2023-04-28T15:27:13.375Z,95973.06
2023-04-28T15:29:40.268Z,96009.81
2023-04-28T15:32:07.197Z,96009.06
2023-04-28T15:34:34.344Z,96021.47
2023-04-28T15:37:01.647Z,96022.31
2023-04-28T15:39:28.792Z,96031.63
2023-04-28T15:41:56.289Z,96042.47
2023-04-28T15:44:23.320Z,96014.78
2023-04-28T15:46:52.126Z,96007.63
2023-04-28T15:49:18.910Z,96017.69
2023-04-28T15:51:45.897Z,95989.56
2023-04-28T15:54:13.024Z,95930.53
2023-04-28T15:56:39.870Z,95861.38
2023-04-28T15:59:06.962Z,95865.75
2023-04-28T16:01:33.953Z,95883.16
2023-04-28T16:04:01.758Z,95914.53
2023-04-28T16:06:29.215Z,95924.16
2023-04-28T16:08:57.069Z,95948.75
2023-04-28T16:11:24.589Z,95964.25
2023-04-28T16:13:51.563Z,95956.38
2023-04-28T16:16:21.080Z,95953.59
2023-04-28T16:18:48.006Z,95968.09
2023-04-28T16:21:17.473Z,95985.44
2023-04-28T16:23:44.771Z,96012.28
2023-04-28T16:26:11.655Z,96031.16
2023-04-28T16:28:38.508Z,96026.63
2023-04-28T16:31:05.319Z,96006.44
2023-04-28T16:33:32.433Z,96031.31
2023-04-28T16:35:59.999Z,96064.03
2023-04-28T16:38:26.725Z,96073.09
2023-04-28T16:40:53.574Z,96132.78
2023-04-28T16:43:21.203Z,96155.41
2023-04-28T16:45:48.288Z,96150.72
2023-04-28T16:48:20.330Z,96115.06
2023-04-28T16:50:47.141Z,96111.28
2023-04-28T16:53:13.808Z,96106.53
2023-04-28T16:55:40.777Z,96091.94
2023-04-28T16:58:07.738Z,96079.81
2023-04-28T17:00:34.441Z,96111.41
2023-04-28T17:03:01.412Z,96120.75
2023-04-28T17:05:28.934Z,96144.41
2023-04-28T17:07:57.248Z,96162.41
2023-04-28T17:10:25.568Z,96203.72
2023-04-28T17:12:52.668Z,96233.38
2023-04-28T17:15:19.447Z,96242.84
2023-04-28T17:17:49.388Z,96241.72
2023-04-28T17:20:19.991Z,96270.53
2023-04-28T17:22:47.837Z,96289.34
2023-04-28T17:25:14.832Z,96294.97
2023-04-28T17:27:41.556Z,96256.78
2023-04-28T17:30:11.661Z,96212.16
2023-04-28T17:32:38.761Z,96194.91
2023-04-28T17:35:10.527Z,96189.69
2023-04-28T17:37:37.463Z,96163.00
2023-04-28T17:40:04.814Z,96164.16
2023-04-28T17:42:32.085Z,96157.41
2023-04-28T17:44:59.381Z,96184.00
2023-04-28T17:47:26.247Z,96214.00
2023-04-28T17:49:53.025Z,96209.53
2023-04-28T17:52:19.859Z,96191.56
2023-04-28T17:54:46.615Z,96172.81
2023-04-28T17:57:14.062Z,96166.47
2023-04-28T17:59:40.889Z,96157.06
2023-04-28T18:02:11.440Z,96118.84
2023-04-28T18:04:38.537Z,96118.88
2023-04-28T18:07:07.350Z,96167.63
2023-04-28T18:09:34.099Z,96274.91
2023-04-28T18:12:03.245Z,96355.09
2023-04-28T18:14:30.730Z,96433.78
2023-04-28T18:16:58.356Z,96486.59
2023-04-28T18:19:28.890Z,96541.28
2023-04-28T18:21:57.145Z,96561.00
2023-04-28T18:24:24.716Z,96563.63
2023-04-28T18:26:51.626Z,96574.44
2023-04-28T18:29:19.101Z,96606.19
2023-04-28T18:31:46.449Z,96618.38
2023-04-28T18:34:13.434Z,96633.03
2023-04-28T18:36:40.479Z,96656.25
2023-04-28T18:39:08.974Z,96621.56
2023-04-28T18:41:36.671Z,96652.25
2023-04-28T18:44:03.524Z,96657.44
2023-04-28T18:46:30.522Z,96629.41
2023-04-28T18:48:57.482Z,96652.56
2023-04-28T18:51:24.380Z,96657.09
2023-04-28T18:53:51.114Z,96664.81
2023-04-28T18:56:17.947Z,96668.03
2023-04-28T18:58:45.901Z,96688.94
2023-04-28T19:01:14.312Z,96701.63
2023-04-28T19:03:41.574Z,96688.25
2023-04-28T19:06:09.016Z,96713.00
2023-04-28T19:08:39.092Z,96701.75
2023-04-28T19:11:09.633Z,96700.16
2023-04-28T19:13:36.876Z,96713.50
2023-04-28T19:16:04.223Z,96706.03
2023-04-28T19:18:32.129Z,96732.56
2023-04-28T19:21:02.918Z,96726.50
2023-04-28T19:23:30.755Z,96717.06
2023-04-28T19:25:58.669Z,96707.22
2023-04-28T19:28:26.373Z,96698.22
2023-04-28T19:30:54.332Z,96709.50
2023-04-28T19:33:24.317Z,96724.44
2023-04-28T19:35:55.711Z,96705.44
2023-04-28T19:38:23.571Z,96700.31
2023-04-28T19:40:53.715Z,96700.22
2023-04-28T19:43:20.528Z,96703.53
2023-04-28T19:45:47.857Z,96694.41
2023-04-28T19:48:14.751Z,96682.69
2023-04-28T19:50:42.370Z,96695.88
2023-04-28T19:53:09.614Z,96694.84
2023-04-28T19:55:37.093Z,96690.13
2023-04-28T19:58:06.170Z,96693.94
2023-04-28T20:00:33.506Z,96678.63
2023-04-28T20:03:00.744Z,96680.81
2023-04-28T20:05:27.636Z,96686.56
2023-04-28T20:07:56.088Z,96669.06
2023-04-28T20:10:23.972Z,96677.66
2023-04-28T20:12:51.010Z,96683.56
2023-04-28T20:15:18.583Z,96677.84
2023-04-28T20:17:46.257Z,96672.47
2023-04-28T20:20:13.595Z,96682.69
2023-04-28T20:22:43.712Z,96679.50
2023-04-28T20:25:11.026Z,96661.22
2023-04-28T20:27:38.116Z,96664.59
2023-04-28T20:30:05.411Z,96658.56
2023-04-28T20:32:32.351Z,96664.72
2023-04-28T20:34:59.533Z,96662.13
2023-04-28T20:37:26.627Z,96670.56
2023-04-28T20:39:53.691Z,96653.28
2023-04-28T20:42:20.460Z,96668.47
2023-04-28T20:44:47.355Z,96675.31
2023-04-28T20:47:14.372Z,96682.00
2023-04-28T20:49:42.474Z,96687.75
2023-04-28T20:52:09.824Z,96698.88
2023-04-28T20:54:36.857Z,96692.84
2023-04-28T20:57:04.721Z,96699.66
2023-04-28T20:59:32.772Z,96674.25
2023-04-28T21:02:00.449Z,96690.84
2023-04-28T21:04:28.440Z,96674.38
2023-04-28T21:06:55.784Z,96655.66
2023-04-28T21:09:25.506Z,96641.56
2023-04-28T21:11:52.789Z,96614.47
2023-04-28T21:14:19.552Z,96592.78
2023-04-28T21:16:46.254Z,96576.81
2023-04-28T21:19:13.039Z,96572.00
2023-04-28T21:21:39.784Z,96571.25
2023-04-28T21:24:08.154Z,96565.13
2023-04-28T21:26:36.017Z,96564.69
2023-04-28T21:29:03.081Z,96565.88
2023-04-28T21:31:30.892Z,96566.91
2023-04-28T21:33:57.764Z,96559.09
2023-04-28T21:36:24.507Z,96568.75
2023-04-28T21:38:51.386Z,96577.81
2023-04-28T21:41:18.323Z,96579.66
2023-04-28T21:43:45.065Z,96566.56
2023-04-28T21:46:12.668Z,96581.28
2023-04-28T21:48:39.397Z,96570.84
2023-04-28T21:51:06.236Z,96572.44
2023-04-28T21:53:33.003Z,96571.00
2023-04-28T21:55:59.778Z,96571.66
2023-04-28T21:58:26.487Z,96567.06
2023-04-28T22:00:55.059Z,96563.84
2023-04-28T22:03:22.218Z,96578.66
2023-04-28T22:05:49.512Z,96577.63
2023-04-28T22:08:17.144Z,96569.81
2023-04-28T22:10:45.774Z,96580.25
2023-04-28T22:13:16.121Z,96571.34
2023-04-28T22:15:43.240Z,96581.84
2023-04-28T22:18:10.134Z,96571.34
2023-04-28T22:20:36.941Z,96554.09
2023-04-28T22:23:03.810Z,96536.03
2023-04-28T22:25:30.609Z,96518.97
2023-04-28T22:27:57.481Z,96526.19
2023-04-28T22:30:25.927Z,96533.84
2023-04-28T22:32:53.452Z,96526.47
2023-04-28T22:35:20.229Z,96528.13
2023-04-28T22:37:47.034Z,96513.75
2023-04-28T22:40:13.966Z,96513.88
2023-04-28T22:42:41.992Z,96517.53
2023-04-28T22:45:10.459Z,96524.59
2023-04-28T22:47:39.800Z,96527.53
2023-04-28T22:50:10.960Z,96513.69
2023-04-28T22:52:37.734Z,96511.56
2023-04-28T22:55:04.973Z,96501.91
2023-04-28T22:57:31.755Z,96512.50
2023-04-28T22:59:58.443Z,96514.44
2023-04-28T23:02:25.534Z,96508.03
2023-04-28T23:04:52.333Z,96518.38
2023-04-28T23:07:19.190Z,96512.25
2023-04-28T23:09:45.912Z,96509.47
2023-04-28T23:12:12.697Z,96503.00
2023-04-28T23:14:39.446Z,96508.31
2023-04-28T23:17:06.314Z,96520.41
2023-04-28T23:19:33.054Z,96520.97
2023-04-28T23:21:59.921Z,96547.72
2023-04-28T23:24:27.565Z,96570.84
2023-04-28T23:26:59.565Z,96578.66
2023-04-28T23:29:26.533Z,96583.69
2023-04-28T23:31:55.067Z,96588.06
2023-04-28T23:34:23.159Z,96584.38
2023-04-28T23:36:50.496Z,96603.59
2023-04-28T23:39:17.163Z,96599.34
2023-04-28T23:41:43.932Z,96602.72
2023-04-28T23:44:10.637Z,96599.00
2023-04-28T23:46:37.382Z,96588.13
2023-04-28T23:49:04.054Z,96601.13
2023-04-28T23:51:32.419Z,96602.78
2023-04-28T23:53:59.528Z,96603.97
2023-04-28T23:56:26.961Z,96598.41
2023-04-28T23:58:53.762Z,96593.47
